Time;durP1;ratioP1;P1;durP2;ratioP2;P2;SDS_P1;SDS_P2;PMS_P1;PMS_P2;Temp;Humidity;BMP_temperature;BMP_pressure;BME280_temperature;BME280_humidity;BME280_pressure;Samples;Min_cycle;Max_cycle;Signal;HPM_P1;HPM_P2
2023/04/20 00:02:14;0.00;0.00;0.62;0.00;0.00;0.62;2.03;1.37;;;24.80;18.40;;;;;;2271427;61;20359;-63
2023/04/20 00:04:59;0.00;0.00;0.62;0.00;0.00;0.62;1.80;1.30;;;24.70;18.80;;;;;;2270673;61;20445;-63
2023/04/20 00:07:47;0.00;0.00;0.62;0.00;0.00;0.62;1.60;1.20;;;24.80;18.40;;;;;;2270383;61;20448;-68
2023/04/20 00:10:31;0.00;0.00;0.62;0.00;0.00;0.62;1.90;1.17;;;24.80;18.40;;;;;;2271005;61;20812;-63
2023/04/20 00:13:16;0.00;0.00;0.62;0.00;0.00;0.62;1.70;1.30;;;24.80;18.40;;;;;;2270931;61;20402;-63
2023/04/20 00:16:01;0.00;0.00;0.62;0.00;0.00;0.62;1.83;1.27;;;24.80;18.40;;;;;;2271077;61;20422;-63
2023/04/20 00:18:47;0.00;0.00;0.62;0.00;0.00;0.62;1.60;1.10;;;24.80;18.40;;;;;;2268241;61;20442;-63
2023/04/20 00:21:32;0.00;0.00;0.62;0.00;0.00;0.62;1.90;1.30;;;24.80;18.40;;;;;;2267560;61;20367;-63
2023/04/20 00:24:18;0.00;0.00;0.62;0.00;0.00;0.62;1.60;1.17;;;24.70;18.30;;;;;;2271180;61;20956;-63
2023/04/20 00:27:03;0.00;0.00;0.62;0.00;0.00;0.62;1.50;1.17;;;24.80;18.40;;;;;;2271581;61;20366;-63
2023/04/20 00:29:47;0.00;0.00;0.62;0.00;0.00;0.62;1.97;1.67;;;24.80;18.40;;;;;;2270699;61;20382;-63
2023/04/20 00:32:32;0.00;0.00;0.62;0.00;0.00;0.62;1.60;1.23;;;24.80;18.40;;;;;;2270882;61;20366;-63
2023/04/20 00:35:16;0.00;0.00;0.62;0.00;0.00;0.62;1.90;1.17;;;24.80;18.40;;;;;;2268125;61;20364;-63
2023/04/20 00:38:02;0.00;0.00;0.62;0.00;0.00;0.62;1.80;1.13;;;24.80;18.40;;;;;;2267721;61;20954;-63
2023/04/20 00:40:52;0.00;0.00;0.62;0.00;0.00;0.62;1.60;1.27;;;24.70;18.40;;;;;;2271032;61;20779;-63
2023/04/20 00:43:36;0.00;0.00;0.62;0.00;0.00;0.62;1.80;1.20;;;24.70;18.40;;;;;;2267897;61;20368;-63
2023/04/20 00:46:22;0.00;0.00;0.62;0.00;0.00;0.62;1.87;1.30;;;24.70;18.40;;;;;;2268483;61;20455;-63
2023/04/20 00:49:07;0.00;0.00;0.62;0.00;0.00;0.62;1.50;1.20;;;24.70;18.40;;;;;;2271300;61;20382;-63
2023/04/20 00:51:52;0.00;0.00;0.62;0.00;0.00;0.62;1.50;1.00;;;24.70;18.90;;;;;;2268344;61;20363;-63
2023/04/20 00:54:37;0.00;0.00;0.62;0.00;0.00;0.62;1.80;1.10;;;24.70;18.40;;;;;;2272469;61;20359;-63
2023/04/20 00:57:25;0.00;0.00;0.62;0.00;0.00;0.62;1.80;1.40;;;24.70;18.40;;;;;;2271558;61;20428;-63
2023/04/20 01:00:11;0.00;0.00;0.62;0.00;0.00;0.62;1.77;1.27;;;24.70;18.40;;;;;;2271783;61;20383;-63
2023/04/20 01:02:56;0.00;0.00;0.62;0.00;0.00;0.62;1.73;1.27;;;24.70;18.40;;;;;;2271917;61;20404;-63
2023/04/20 01:05:40;0.00;0.00;0.62;0.00;0.00;0.62;1.60;1.10;;;24.70;18.40;;;;;;2271078;61;20359;-63
2023/04/20 01:08:26;0.00;0.00;0.62;0.00;0.00;0.62;1.87;1.10;;;24.70;18.40;;;;;;2272030;61;20440;-63
2023/04/20 01:11:11;0.00;0.00;0.62;0.00;0.00;0.62;2.13;1.50;;;24.70;18.40;;;;;;2271510;61;20390;-64
2023/04/20 01:13:56;0.00;0.00;0.62;0.00;0.00;0.62;1.70;1.27;;;24.70;18.40;;;;;;2271385;61;20379;-65
2023/04/20 01:16:43;0.00;0.00;0.62;0.00;0.00;0.62;1.80;1.30;;;24.60;18.40;;;;;;2272024;61;20375;-63
2023/04/20 01:19:31;0.00;0.00;0.62;0.00;0.00;0.62;1.60;1.30;;;24.70;18.40;;;;;;2271189;61;20395;-62
2023/04/20 01:22:18;0.00;0.00;0.62;0.00;0.00;0.62;1.50;1.07;;;24.60;18.40;;;;;;2271677;61;20417;-63
2023/04/20 01:25:05;0.00;0.00;0.62;0.00;0.00;0.62;2.07;1.10;;;24.60;18.40;;;;;;2271962;61;20360;-63
2023/04/20 01:27:50;0.00;0.00;0.62;0.00;0.00;0.62;1.73;1.20;;;24.60;18.40;;;;;;2271190;61;20358;-63
2023/04/20 01:30:36;0.00;0.00;0.62;0.00;0.00;0.62;1.53;1.00;;;24.60;18.40;;;;;;2271855;61;20457;-63
2023/04/20 01:33:21;0.00;0.00;0.62;0.00;0.00;0.62;1.83;1.40;;;24.60;18.40;;;;;;2271114;61;20806;-63
2023/04/20 01:36:09;0.00;0.00;0.62;0.00;0.00;0.62;2.20;1.83;;;24.60;18.40;;;;;;2271304;61;20416;-64
2023/04/20 01:38:56;0.00;0.00;0.62;0.00;0.00;0.62;1.80;1.37;;;24.60;18.40;;;;;;2271635;61;20873;-63
2023/04/20 01:41:41;0.00;0.00;0.62;0.00;0.00;0.62;1.50;1.03;;;24.60;18.40;;;;;;2271447;61;20367;-65
2023/04/20 01:44:25;0.00;0.00;0.62;0.00;0.00;0.62;1.33;0.87;;;24.60;18.40;;;;;;2268166;61;20359;-65
2023/04/20 01:47:11;0.00;0.00;0.62;0.00;0.00;0.62;1.70;1.20;;;24.60;18.40;;;;;;2272107;61;20927;-63
2023/04/20 01:49:58;0.00;0.00;0.62;0.00;0.00;0.62;1.97;1.27;;;24.60;18.40;;;;;;2267358;61;20953;-63
2023/04/20 01:52:43;0.00;0.00;0.62;0.00;0.00;0.62;2.50;1.20;;;24.60;18.50;;;;;;2271739;61;20362;-63
2023/04/20 01:55:30;0.00;0.00;0.62;0.00;0.00;0.62;2.13;1.40;;;24.50;18.40;;;;;;2268560;61;20366;-63
2023/04/20 01:58:14;0.00;0.00;0.62;0.00;0.00;0.62;1.50;1.00;;;24.60;18.50;;;;;;2270916;61;20429;-63
2023/04/20 02:01:01;0.00;0.00;0.62;0.00;0.00;0.62;1.50;1.00;;;24.60;18.50;;;;;;2270718;61;20861;-63
2023/04/20 02:03:47;0.00;0.00;0.62;0.00;0.00;0.62;1.50;1.13;;;24.60;18.50;;;;;;2268082;61;20358;-63
2023/04/20 02:06:32;0.00;0.00;0.62;0.00;0.00;0.62;1.60;1.10;;;24.60;18.50;;;;;;2271442;61;20815;-63
2023/04/20 02:09:17;0.00;0.00;0.62;0.00;0.00;0.62;1.60;1.10;;;24.50;18.40;;;;;;2271199;61;20421;-63
2023/04/20 02:12:04;0.00;0.00;0.62;0.00;0.00;0.62;1.50;1.10;;;24.50;18.40;;;;;;2271169;61;20358;-63
2023/04/20 02:14:49;0.00;0.00;0.62;0.00;0.00;0.62;1.40;1.00;;;24.50;18.40;;;;;;2271614;61;20375;-63
2023/04/20 02:17:37;0.00;0.00;0.62;0.00;0.00;0.62;1.97;1.30;;;24.50;18.50;;;;;;2271030;61;20379;-63
2023/04/20 02:20:23;0.00;0.00;0.62;0.00;0.00;0.62;1.93;1.27;;;24.50;18.50;;;;;;2267527;61;20360;-63
2023/04/20 02:23:08;0.00;0.00;0.62;0.00;0.00;0.62;1.80;1.20;;;24.50;18.50;;;;;;2271380;61;20358;-63
2023/04/20 02:25:53;0.00;0.00;0.62;0.00;0.00;0.62;1.67;1.10;;;24.50;18.50;;;;;;2271268;61;20946;-63
2023/04/20 02:28:39;0.00;0.00;0.62;0.00;0.00;0.62;1.67;1.03;;;24.50;18.50;;;;;;2271255;61;20401;-65
2023/04/20 02:31:24;0.00;0.00;0.62;0.00;0.00;0.62;1.83;0.93;;;24.50;18.50;;;;;;2271758;61;20367;-63
2023/04/20 02:34:09;0.00;0.00;0.62;0.00;0.00;0.62;1.60;1.13;;;24.50;18.50;;;;;;2271114;61;20402;-63
2023/04/20 02:36:54;0.00;0.00;0.62;0.00;0.00;0.62;1.80;1.13;;;24.50;18.50;;;;;;2272111;61;20390;-63
2023/04/20 02:39:39;0.00;0.00;0.62;0.00;0.00;0.62;1.90;1.00;;;24.40;18.40;;;;;;2271091;61;20391;-63
2023/04/20 02:42:24;0.00;0.00;0.62;0.00;0.00;0.62;1.60;1.13;;;24.40;18.40;;;;;;2271101;61;20412;-63
2023/04/20 02:45:13;0.00;0.00;0.62;0.00;0.00;0.62;1.70;1.17;;;24.40;18.50;;;;;;2268621;61;20379;-62
2023/04/20 02:48:01;0.00;0.00;0.62;0.00;0.00;0.62;1.63;1.10;;;24.40;18.40;;;;;;2271176;61;20925;-62
2023/04/20 02:50:48;0.00;0.00;0.62;0.00;0.00;0.62;3.43;1.60;;;24.40;18.50;;;;;;2267889;61;20381;-62
2023/04/20 02:53:39;0.00;0.00;0.62;0.00;0.00;0.62;1.83;1.20;;;24.40;18.50;;;;;;2268609;61;20359;-63
2023/04/20 02:56:33;0.00;0.00;0.62;0.00;0.00;0.62;1.70;1.13;;;24.40;18.50;;;;;;2267514;61;20787;-62
2023/04/20 02:59:22;0.00;0.00;0.62;0.00;0.00;0.62;1.60;1.10;;;24.40;18.50;;;;;;2271000;61;20475;-63
2023/04/20 03:02:17;0.00;0.00;0.62;0.00;0.00;0.62;2.40;1.40;;;24.40;18.50;;;;;;2268147;61;20448;-62
2023/04/20 03:05:03;0.00;0.00;0.62;0.00;0.00;0.62;1.53;1.00;;;24.40;18.50;;;;;;2267353;61;20367;-60
2023/04/20 03:07:57;0.00;0.00;0.62;0.00;0.00;0.62;1.57;1.00;;;24.40;18.50;;;;;;2271145;61;20367;-63
2023/04/20 03:10:43;0.00;0.00;0.62;0.00;0.00;0.62;1.53;1.07;;;24.40;18.50;;;;;;2270400;61;20359;-62
2023/04/20 03:13:35;0.00;0.00;0.62;0.00;0.00;0.62;1.50;0.90;;;24.40;18.50;;;;;;2268432;61;20367;-63
2023/04/20 03:16:20;0.00;0.00;0.62;0.00;0.00;0.62;1.63;1.00;;;24.40;18.50;;;;;;2268355;61;20398;-64
2023/04/20 03:19:10;0.00;0.00;0.62;0.00;0.00;0.62;1.50;0.90;;;24.40;18.50;;;;;;2270179;61;20488;-63
2023/04/20 03:21:54;0.00;0.00;0.62;0.00;0.00;0.62;1.60;1.13;;;24.40;18.50;;;;;;2268438;61;20359;-62
2023/04/20 03:24:39;0.00;0.00;0.62;0.00;0.00;0.62;1.70;1.00;;;24.40;18.50;;;;;;2271078;61;20367;-62
2023/04/20 03:27:38;0.00;0.00;0.62;0.00;0.00;0.62;1.37;0.93;;;24.40;18.50;;;;;;2267943;61;20375;-62
2023/04/20 03:30:28;0.00;0.00;0.62;0.00;0.00;0.62;1.93;1.10;;;24.40;18.50;;;;;;2267933;61;20845;-65
2023/04/20 03:33:19;0.00;0.00;0.62;0.00;0.00;0.62;2.00;1.10;;;24.40;18.60;;;;;;2267863;61;20755;-63
2023/04/20 03:36:06;0.00;0.00;0.62;0.00;0.00;0.62;1.50;1.00;;;24.40;18.50;;;;;;2268403;61;20408;-62
2023/04/20 03:38:51;0.00;0.00;0.62;0.00;0.00;0.62;2.10;1.23;;;24.40;18.50;;;;;;2271116;61;20413;-62
2023/04/20 03:41:36;0.00;0.00;0.62;0.00;0.00;0.62;1.50;0.90;;;24.40;18.50;;;;;;2270349;61;20441;-60
2023/04/20 03:44:20;0.00;0.00;0.62;0.00;0.00;0.62;1.80;1.00;;;24.30;18.50;;;;;;2268096;61;20378;-63
2023/04/20 03:47:05;0.00;0.00;0.62;0.00;0.00;0.62;1.63;1.20;;;24.40;18.60;;;;;;2270943;61;20362;-62
2023/04/20 03:49:54;0.00;0.00;0.62;0.00;0.00;0.62;2.00;1.13;;;24.30;18.50;;;;;;2295637;56;20406;-65
2023/04/20 03:52:40;0.00;0.00;0.62;0.00;0.00;0.62;1.70;1.10;;;24.30;18.50;;;;;;2273292;61;20393;-65
2023/04/20 03:55:27;0.00;0.00;0.62;0.00;0.00;0.62;1.80;1.20;;;24.30;18.50;;;;;;2271295;61;20911;-62
2023/04/20 03:58:17;0.00;0.00;0.62;0.00;0.00;0.62;1.40;1.07;;;24.30;18.50;;;;;;2271630;60;20804;-63
2023/04/20 04:01:14;0.00;0.00;0.62;0.00;0.00;0.62;1.87;1.10;;;24.30;18.50;;;;;;2271835;61;20412;-63
2023/04/20 04:04:04;0.00;0.00;0.62;0.00;0.00;0.62;3.37;1.10;;;24.30;18.50;;;;;;2271027;61;20793;-62
2023/04/20 04:06:50;0.00;0.00;0.62;0.00;0.00;0.62;1.70;0.90;;;24.30;18.50;;;;;;2272329;61;20365;-63
2023/04/20 04:09:37;0.00;0.00;0.62;0.00;0.00;0.62;1.80;1.07;;;24.30;18.50;;;;;;2271327;61;21224;-63
2023/04/20 04:12:21;0.00;0.00;0.62;0.00;0.00;0.62;2.10;1.10;;;24.30;18.50;;;;;;2271995;61;20776;-63
2023/04/20 04:15:09;0.00;0.00;0.62;0.00;0.00;0.62;2.20;1.10;;;24.30;18.50;;;;;;2272238;60;20366;-62
2023/04/20 04:18:02;0.00;0.00;0.62;0.00;0.00;0.62;1.70;1.07;;;24.30;18.50;;;;;;2274552;55;20362;-63
2023/04/20 04:20:50;0.00;0.00;0.62;0.00;0.00;0.62;1.40;1.00;;;24.30;18.50;;;;;;2281921;60;20380;-63
2023/04/20 04:23:36;0.00;0.00;0.62;0.00;0.00;0.62;2.07;1.40;;;24.30;18.50;;;;;;2280639;60;20405;-62
2023/04/20 04:26:30;0.00;0.00;0.62;0.00;0.00;0.62;1.47;0.97;;;24.30;18.60;;;;;;2280268;60;20365;-63
2023/04/20 04:29:15;0.00;0.00;0.62;0.00;0.00;0.62;1.53;1.10;;;24.30;18.60;;;;;;2279039;60;20384;-62
2023/04/20 04:32:00;0.00;0.00;0.62;0.00;0.00;0.62;1.70;0.93;;;24.30;18.60;;;;;;2276488;60;20383;-63
2023/04/20 04:34:46;0.00;0.00;0.62;0.00;0.00;0.62;3.90;1.20;;;24.30;18.60;;;;;;2276489;60;20387;-62
2023/04/20 04:37:31;0.00;0.00;0.62;0.00;0.00;0.62;1.70;1.20;;;24.20;18.50;;;;;;2276471;60;20379;-62
2023/04/20 04:40:17;0.00;0.00;0.62;0.00;0.00;0.62;1.60;0.93;;;24.20;18.50;;;;;;2278464;60;20431;-63
2023/04/20 04:43:04;0.00;0.00;0.62;0.00;0.00;0.62;1.63;1.03;;;24.30;18.60;;;;;;2273933;60;20439;-62
2023/04/20 04:45:54;0.00;0.00;0.62;0.00;0.00;0.62;1.73;1.20;;;24.20;18.50;;;;;;2276865;60;20375;-62
2023/04/20 04:48:41;0.00;0.00;0.62;0.00;0.00;0.62;2.37;1.20;;;24.30;18.60;;;;;;2276207;60;20377;-63
2023/04/20 04:51:26;0.00;0.00;0.62;0.00;0.00;0.62;2.10;1.17;;;24.30;18.60;;;;;;2276845;60;20369;-62
2023/04/20 04:54:10;0.00;0.00;0.62;0.00;0.00;0.62;3.57;1.13;;;24.20;18.50;;;;;;2278935;60;20383;-63
2023/04/20 04:56:57;0.00;0.00;0.62;0.00;0.00;0.62;1.70;1.03;;;24.20;18.60;;;;;;2279856;60;20364;-62
2023/04/20 04:59:43;0.00;0.00;0.62;0.00;0.00;0.62;2.53;1.20;;;24.20;18.60;;;;;;2279886;60;20384;-63
2023/04/20 05:02:28;0.00;0.00;0.62;0.00;0.00;0.62;1.63;1.10;;;24.20;18.50;;;;;;2278916;60;20803;-66
2023/04/20 05:05:13;0.00;0.00;0.62;0.00;0.00;0.62;1.47;1.03;;;24.20;18.50;;;;;;2278909;60;20364;-62
2023/04/20 05:07:58;0.00;0.00;0.62;0.00;0.00;0.62;1.83;1.17;;;24.20;18.60;;;;;;2280124;60;20364;-63
2023/04/20 05:10:43;0.00;0.00;0.62;0.00;0.00;0.62;1.90;1.03;;;24.20;18.60;;;;;;2278624;60;20425;-63
2023/04/20 05:13:28;0.00;0.00;0.62;0.00;0.00;0.62;1.57;1.00;;;24.20;18.60;;;;;;2279791;60;20365;-63
2023/04/20 05:16:15;0.00;0.00;0.62;0.00;0.00;0.62;2.47;1.10;;;24.20;18.60;;;;;;2279616;60;20357;-62
2023/04/20 05:18:59;0.00;0.00;0.62;0.00;0.00;0.62;1.90;1.30;;;24.20;18.60;;;;;;2279186;60;20442;-62
2023/04/20 05:21:44;0.00;0.00;0.62;0.00;0.00;0.62;1.70;1.20;;;24.20;18.60;;;;;;2280133;60;20379;-62
2023/04/20 05:24:29;0.00;0.00;0.62;0.00;0.00;0.62;1.50;1.03;;;24.20;18.60;;;;;;2278926;60;20369;-62
2023/04/20 05:27:14;0.00;0.00;0.62;0.00;0.00;0.62;1.50;0.97;;;24.20;18.60;;;;;;2279521;60;20357;-63
2023/04/20 05:29:59;0.00;0.00;0.62;0.00;0.00;0.62;1.90;1.40;;;24.20;18.60;;;;;;2276266;60;20427;-63
2023/04/20 05:32:46;0.00;0.00;0.62;0.00;0.00;0.62;1.60;1.10;;;24.20;18.60;;;;;;2278995;60;20484;-62
2023/04/20 05:35:31;0.00;0.00;0.62;0.00;0.00;0.62;1.60;1.00;;;24.20;18.60;;;;;;2279581;60;20901;-63
2023/04/20 05:38:15;0.00;0.00;0.62;0.00;0.00;0.62;1.63;1.00;;;24.20;18.60;;;;;;2279841;60;20384;-63
2023/04/20 05:41:00;0.00;0.00;0.62;0.00;0.00;0.62;2.00;1.30;;;24.20;18.60;;;;;;2279128;60;20405;-63
2023/04/20 05:43:45;0.00;0.00;0.62;0.00;0.00;0.62;1.57;0.97;;;24.20;18.60;;;;;;2279475;60;20374;-62
2023/04/20 05:46:30;0.00;0.00;0.62;0.00;0.00;0.62;1.60;1.00;;;24.20;18.60;;;;;;2279100;60;20369;-63
2023/04/20 05:49:16;0.00;0.00;0.62;0.00;0.00;0.62;1.30;0.90;;;24.20;18.60;;;;;;2279298;60;20368;-62
2023/04/20 05:52:01;0.00;0.00;0.62;0.00;0.00;0.62;1.50;1.10;;;24.20;18.60;;;;;;2279633;60;20430;-65
2023/04/20 05:54:46;0.00;0.00;0.62;0.00;0.00;0.62;1.90;1.30;;;24.20;18.60;;;;;;2278913;60;20426;-65
2023/04/20 05:57:31;0.00;0.00;0.62;0.00;0.00;0.62;1.70;1.20;;;24.20;18.70;;;;;;2276301;60;20418;-65
2023/04/20 06:00:17;0.00;0.00;0.62;0.00;0.00;0.62;1.73;1.10;;;24.20;18.60;;;;;;2278863;60;21017;-62
2023/04/20 06:03:02;0.00;0.00;0.62;0.00;0.00;0.62;1.50;0.93;;;24.20;18.60;;;;;;2279823;60;20434;-65
2023/04/20 06:05:49;0.00;0.00;0.62;0.00;0.00;0.62;1.60;1.00;;;24.10;18.60;;;;;;2278860;60;20964;-64
2023/04/20 06:08:34;0.00;0.00;0.62;0.00;0.00;0.62;2.30;1.20;;;24.20;18.70;;;;;;2279408;60;20478;-64
2023/04/20 06:11:18;0.00;0.00;0.62;0.00;0.00;0.62;2.43;1.17;;;24.10;18.60;;;;;;2279794;60;20353;-66
2023/04/20 06:14:03;0.00;0.00;0.62;0.00;0.00;0.62;1.50;1.00;;;24.10;18.60;;;;;;2279638;60;20453;-67
2023/04/20 06:16:48;0.00;0.00;0.62;0.00;0.00;0.62;1.83;1.17;;;24.10;18.60;;;;;;2279283;60;20365;-64
2023/04/20 06:19:32;0.00;0.00;0.62;0.00;0.00;0.62;1.60;1.10;;;24.10;18.60;;;;;;2278889;60;20887;-65
2023/04/20 06:22:19;0.00;0.00;0.62;0.00;0.00;0.62;1.80;1.20;;;24.10;18.60;;;;;;2279831;60;20378;-64
2023/04/20 06:25:04;0.00;0.00;0.62;0.00;0.00;0.62;1.63;1.00;;;24.10;18.60;;;;;;2279225;60;20455;-65
2023/04/20 06:27:49;0.00;0.00;0.62;0.00;0.00;0.62;1.80;1.27;;;24.10;18.60;;;;;;2276195;60;20810;-64
2023/04/20 06:30:34;0.00;0.00;0.62;0.00;0.00;0.62;1.70;1.10;;;24.10;18.60;;;;;;2278786;60;20411;-64
2023/04/20 06:33:18;0.00;0.00;0.62;0.00;0.00;0.62;1.97;1.10;;;24.10;18.60;;;;;;2279167;60;20470;-64
2023/04/20 06:36:07;0.00;0.00;0.62;0.00;0.00;0.62;1.97;1.30;;;24.10;18.70;;;;;;2279746;60;20816;-64
2023/04/20 06:38:54;0.00;0.00;0.62;0.00;0.00;0.62;2.00;1.20;;;24.10;18.70;;;;;;2391773;39;20399;31
2023/04/20 06:41:40;0.00;0.00;0.62;0.00;0.00;0.62;1.70;1.20;;;24.10;18.70;;;;;;2260217;61;20434;-64
2023/04/20 06:44:25;0.00;0.00;0.62;0.00;0.00;0.62;1.90;1.20;;;24.10;18.70;;;;;;2255857;61;20933;-64
2023/04/20 06:47:09;0.00;0.00;0.62;0.00;0.00;0.62;1.57;1.00;;;24.10;18.70;;;;;;2258668;61;20432;-65
2023/04/20 06:49:54;0.00;0.00;0.62;0.00;0.00;0.62;1.90;1.10;;;24.10;18.70;;;;;;2258677;61;20433;-68
2023/04/20 06:52:40;0.00;0.00;0.62;0.00;0.00;0.62;1.70;0.97;;;24.10;18.70;;;;;;2258812;61;20366;-64
2023/04/20 06:55:25;0.00;0.00;0.62;0.00;0.00;0.62;1.70;1.00;;;24.10;18.70;;;;;;2258397;61;20810;-64
2023/04/20 06:58:11;0.00;0.00;0.62;0.00;0.00;0.62;1.83;0.90;;;24.10;18.70;;;;;;2259081;61;20423;-64
2023/04/20 07:00:55;0.00;0.00;0.62;0.00;0.00;0.62;3.00;1.60;;;24.10;18.70;;;;;;2258085;61;20358;-64
2023/04/20 07:03:40;0.00;0.00;0.62;0.00;0.00;0.62;1.83;1.20;;;24.10;18.70;;;;;;2258687;61;20416;-63
2023/04/20 07:06:26;0.00;0.00;0.62;0.00;0.00;0.62;2.13;1.40;;;24.10;18.70;;;;;;2259013;61;20366;-65
2023/04/20 07:09:11;0.00;0.00;0.62;0.00;0.00;0.62;1.70;1.10;;;24.10;18.70;;;;;;2257982;61;20470;-64
2023/04/20 07:11:56;0.00;0.00;0.62;0.00;0.00;0.62;1.73;1.13;;;24.10;18.70;;;;;;2258918;61;20927;-64
2023/04/20 07:14:42;0.00;0.00;0.62;0.00;0.00;0.62;1.67;1.13;;;24.10;18.70;;;;;;2258611;61;20366;-64
2023/04/20 07:17:28;0.00;0.00;0.62;0.00;0.00;0.62;2.20;1.40;;;24.10;18.70;;;;;;2258626;61;20436;-63
2023/04/20 07:20:12;0.00;0.00;0.62;0.00;0.00;0.62;1.90;1.20;;;24.10;18.70;;;;;;2258718;61;20416;-64
2023/04/20 07:22:57;0.00;0.00;0.62;0.00;0.00;0.62;1.77;1.00;;;24.10;18.70;;;;;;2257921;61;20468;-64
2023/04/20 07:25:42;0.00;0.00;0.62;0.00;0.00;0.62;1.40;0.97;;;24.10;18.70;;;;;;2258910;61;20366;-64
2023/04/20 07:28:27;0.00;0.00;0.62;0.00;0.00;0.62;2.47;1.30;;;24.10;18.70;;;;;;2258975;61;20390;-67
2023/04/20 07:31:13;0.00;0.00;0.62;0.00;0.00;0.62;2.93;1.20;;;24.10;18.80;;;;;;2257967;61;20390;-64
2023/04/20 07:33:58;0.00;0.00;0.62;0.00;0.00;0.62;1.77;1.10;;;24.10;18.80;;;;;;2258789;61;20366;-64
2023/04/20 07:36:43;0.00;0.00;0.62;0.00;0.00;0.62;2.00;1.13;;;24.10;18.80;;;;;;2258446;61;20421;-64
2023/04/20 07:39:29;0.00;0.00;0.62;0.00;0.00;0.62;1.60;1.00;;;24.10;18.80;;;;;;2257747;61;20459;-64
2023/04/20 07:42:14;0.00;0.00;0.62;0.00;0.00;0.62;1.60;1.13;;;24.10;18.80;;;;;;2259113;61;20906;-64
2023/04/20 07:44:59;0.00;0.00;0.62;0.00;0.00;0.62;1.67;1.10;;;24.10;18.80;;;;;;2255817;61;20389;-65
2023/04/20 07:47:46;0.00;0.00;0.62;0.00;0.00;0.62;1.90;1.10;;;24.10;18.80;;;;;;2259235;61;20365;-64
2023/04/20 07:50:30;0.00;0.00;0.62;0.00;0.00;0.62;1.77;1.20;;;24.10;18.80;;;;;;2259068;61;20362;-64
2023/04/20 07:53:15;0.00;0.00;0.62;0.00;0.00;0.62;1.60;1.10;;;24.10;18.80;;;;;;2258765;61;20830;-64
2023/04/20 07:55:59;0.00;0.00;0.62;0.00;0.00;0.62;1.63;1.00;;;24.10;18.80;;;;;;2259666;61;20362;-64
2023/04/20 07:58:44;0.00;0.00;0.62;0.00;0.00;0.62;1.50;1.10;;;24.10;18.80;;;;;;2259272;61;20468;-64
2023/04/20 08:01:30;0.00;0.00;0.62;0.00;0.00;0.62;1.50;1.17;;;24.10;18.80;;;;;;2259027;61;20428;-64
2023/04/20 08:04:16;0.00;0.00;0.62;0.00;0.00;0.62;1.60;1.10;;;24.10;18.80;;;;;;2259539;61;20362;-64
2023/04/20 08:07:01;0.00;0.00;0.62;0.00;0.00;0.62;1.93;1.40;;;24.10;18.80;;;;;;2258582;61;20362;-64
2023/04/20 08:09:45;0.00;0.00;0.62;0.00;0.00;0.62;1.70;1.20;;;24.10;18.80;;;;;;2259385;61;20425;-64
2023/04/20 08:12:30;0.00;0.00;0.62;0.00;0.00;0.62;1.50;0.90;;;24.10;18.80;;;;;;2259518;61;20430;-64
2023/04/20 08:15:15;0.00;0.00;0.62;0.00;0.00;0.62;1.87;1.00;;;24.10;18.80;;;;;;2258006;61;20415;-66
2023/04/20 08:18:00;0.00;0.00;0.62;0.00;0.00;0.62;2.20;1.43;;;24.10;18.80;;;;;;2259495;61;20365;-64
2023/04/20 08:20:46;0.00;0.00;0.62;0.00;0.00;0.62;1.63;1.20;;;24.10;18.80;;;;;;2259063;61;20436;-64
2023/04/20 08:23:30;0.00;0.00;0.62;0.00;0.00;0.62;1.80;1.03;;;24.10;18.80;;;;;;2258902;61;20382;-64
2023/04/20 08:26:16;0.00;0.00;0.62;0.00;0.00;0.62;2.30;1.40;;;24.10;18.90;;;;;;2259676;61;20394;-64
2023/04/20 08:29:02;0.00;0.00;0.62;0.00;0.00;0.62;1.80;1.10;;;24.10;18.90;;;;;;2258201;61;20381;-64
2023/04/20 08:31:47;0.00;0.00;0.62;0.00;0.00;0.62;1.63;1.10;;;24.10;18.90;;;;;;2259763;61;20485;-65
2023/04/20 08:34:32;0.00;0.00;0.62;0.00;0.00;0.62;1.70;1.23;;;24.10;19.40;;;;;;2259405;61;20373;-64
2023/04/20 08:37:18;0.00;0.00;0.62;0.00;0.00;0.62;1.57;1.00;;;24.10;18.90;;;;;;2258804;61;20774;-64
2023/04/20 08:40:04;0.00;0.00;0.62;0.00;0.00;0.62;1.60;1.00;;;24.10;18.90;;;;;;2259198;61;20397;-64
2023/04/20 08:42:49;0.00;0.00;0.62;0.00;0.00;0.62;1.73;1.10;;;24.10;18.90;;;;;;2259463;61;20372;-64
2023/04/20 08:45:34;0.00;0.00;0.62;0.00;0.00;0.62;1.93;1.27;;;24.10;18.90;;;;;;2259207;61;20376;-64
2023/04/20 08:48:24;0.00;0.00;0.62;0.00;0.00;0.62;1.77;1.33;;;24.10;18.90;;;;;;2311219;39;20365;31
2023/04/20 08:51:09;0.00;0.00;0.62;0.00;0.00;0.62;1.50;1.10;;;24.10;18.90;;;;;;2268435;61;20496;-64
2023/04/20 08:53:55;0.00;0.00;0.62;0.00;0.00;0.62;2.00;1.37;;;24.10;18.90;;;;;;2267818;61;20368;-64
2023/04/20 08:56:42;0.00;0.00;0.62;0.00;0.00;0.62;2.30;1.50;;;24.10;18.90;;;;;;2267615;61;20364;-64
2023/04/20 08:59:28;0.00;0.00;0.62;0.00;0.00;0.62;1.43;1.00;;;24.10;18.90;;;;;;2269949;61;20418;-64
2023/04/20 09:02:13;0.00;0.00;0.62;0.00;0.00;0.62;1.73;1.20;;;24.10;19.40;;;;;;2268399;61;20460;-64
2023/04/20 09:05:03;0.00;0.00;0.62;0.00;0.00;0.62;1.80;1.20;;;24.10;18.90;;;;;;2271597;61;20395;-64
2023/04/20 09:07:51;0.00;0.00;0.62;0.00;0.00;0.62;2.27;1.30;;;24.10;18.90;;;;;;2271224;61;20378;-64
2023/04/20 09:10:42;0.00;0.00;0.62;0.00;0.00;0.62;1.87;1.10;;;24.10;18.90;;;;;;2271503;61;20360;-64
2023/04/20 09:13:28;0.00;0.00;0.62;0.00;0.00;0.62;1.90;1.30;;;24.10;18.90;;;;;;2270950;61;20381;-64
2023/04/20 09:16:13;0.00;0.00;0.62;0.00;0.00;0.62;1.83;1.20;;;24.10;18.90;;;;;;2271878;61;20372;-67
2023/04/20 09:18:58;0.00;0.00;0.62;0.00;0.00;0.62;2.37;1.30;;;24.10;18.90;;;;;;2271701;61;20394;-64
2023/04/20 09:21:49;0.00;0.00;0.62;0.00;0.00;0.62;1.50;1.13;;;24.10;19.00;;;;;;2271078;61;20414;-64
2023/04/20 09:24:36;0.00;0.00;0.62;0.00;0.00;0.62;1.80;1.30;;;24.10;18.90;;;;;;2271673;61;20382;-64
2023/04/20 09:27:22;0.00;0.00;0.62;0.00;0.00;0.62;2.37;1.30;;;24.10;18.90;;;;;;2271724;61;20362;-64
2023/04/20 09:30:08;0.00;0.00;0.62;0.00;0.00;0.62;2.07;1.50;;;24.10;19.00;;;;;;2270937;61;20375;-64
2023/04/20 09:33:03;0.00;0.00;0.62;0.00;0.00;0.62;1.63;1.20;;;24.10;19.00;;;;;;2271965;61;20899;-64
2023/04/20 09:35:48;0.00;0.00;0.62;0.00;0.00;0.62;1.60;0.90;;;24.10;19.00;;;;;;2271369;61;20350;-67
2023/04/20 09:38:33;0.00;0.00;0.62;0.00;0.00;0.62;1.70;1.20;;;24.10;19.00;;;;;;2268645;61;20387;-64
2023/04/20 09:41:17;0.00;0.00;0.62;0.00;0.00;0.62;1.70;1.20;;;24.10;19.00;;;;;;2271540;61;20401;-68
2023/04/20 09:44:04;0.00;0.00;0.62;0.00;0.00;0.62;1.40;1.03;;;24.10;19.00;;;;;;2271156;61;20409;-64
2023/04/20 09:46:49;0.00;0.00;0.62;0.00;0.00;0.62;1.60;1.07;;;24.10;19.00;;;;;;2271575;61;20375;-63
2023/04/20 09:49:34;0.00;0.00;0.62;0.00;0.00;0.62;1.90;1.30;;;24.10;19.00;;;;;;2267251;61;20394;-63
2023/04/20 09:52:19;0.00;0.00;0.62;0.00;0.00;0.62;1.73;1.30;;;24.10;19.00;;;;;;2271167;61;20360;-63
2023/04/20 09:55:06;0.00;0.00;0.62;0.00;0.00;0.62;1.60;1.00;;;24.10;19.00;;;;;;2271209;61;20351;-63
2023/04/20 09:57:53;0.00;0.00;0.62;0.00;0.00;0.62;1.80;1.20;;;24.10;19.00;;;;;;2271126;61;20789;-63
2023/04/20 10:00:39;0.00;0.00;0.62;0.00;0.00;0.62;1.60;1.10;;;24.10;19.00;;;;;;2271038;61;20961;-63
2023/04/20 10:03:24;0.00;0.00;0.62;0.00;0.00;0.62;2.40;1.70;;;24.20;19.60;;;;;;2271474;61;20363;-63
2023/04/20 10:06:21;0.00;0.00;0.62;0.00;0.00;0.62;1.90;1.40;;;24.10;19.00;;;;;;2271129;61;20367;-63
2023/04/20 10:09:07;0.00;0.00;0.62;0.00;0.00;0.62;1.80;1.23;;;24.20;19.10;;;;;;2271074;61;20919;-65
2023/04/20 10:12:04;0.00;0.00;0.62;0.00;0.00;0.62;2.40;1.20;;;24.20;19.10;;;;;;2271326;61;20362;-63
2023/04/20 10:14:55;0.00;0.00;0.62;0.00;0.00;0.62;2.90;1.80;;;24.10;19.00;;;;;;2271105;61;20398;-63
2023/04/20 10:17:42;0.00;0.00;0.62;0.00;0.00;0.62;1.70;1.50;;;24.20;19.10;;;;;;2268715;61;20375;-63
2023/04/20 10:20:28;0.00;0.00;0.62;0.00;0.00;0.62;2.20;1.70;;;24.20;19.10;;;;;;2270720;61;20415;-63
2023/04/20 10:23:17;0.00;0.00;0.62;0.00;0.00;0.62;2.77;2.17;;;24.20;19.10;;;;;;2271790;61;20390;-63
2023/04/20 10:26:02;0.00;0.00;0.62;0.00;0.00;0.62;2.77;2.00;;;24.20;19.10;;;;;;2272045;61;20371;-63
2023/04/20 10:28:47;0.00;0.00;0.62;0.00;0.00;0.62;2.10;1.80;;;24.20;19.10;;;;;;2271160;61;20784;-63
2023/04/20 10:31:37;0.00;0.00;0.62;0.00;0.00;0.62;2.73;2.13;;;24.20;19.70;;;;;;2272149;61;20359;-63
2023/04/20 10:34:35;0.00;0.00;0.62;0.00;0.00;0.62;2.73;1.93;;;24.20;19.20;;;;;;2271645;61;20375;-65
2023/04/20 10:37:20;0.00;0.00;0.62;0.00;0.00;0.62;2.80;2.30;;;24.20;19.10;;;;;;2271908;61;20753;-63
2023/04/20 10:40:07;0.00;0.00;0.62;0.00;0.00;0.62;3.00;2.70;;;24.20;19.10;;;;;;2271176;61;20451;-63
2023/04/20 10:42:52;0.00;0.00;0.62;0.00;0.00;0.62;3.03;2.73;;;24.20;19.10;;;;;;2271124;61;20393;-63
2023/04/20 10:45:37;0.00;0.00;0.62;0.00;0.00;0.62;5.00;3.13;;;24.20;19.10;;;;;;2268851;61;20371;-63
2023/04/20 10:48:22;0.00;0.00;0.62;0.00;0.00;0.62;3.30;2.63;;;24.20;19.10;;;;;;2270431;61;20406;-63
2023/04/20 10:51:10;0.00;0.00;0.62;0.00;0.00;0.62;4.10;3.57;;;24.30;19.20;;;;;;2266788;61;20375;-63
2023/04/20 10:54:04;0.00;0.00;0.62;0.00;0.00;0.62;3.20;2.40;;;24.30;19.20;;;;;;2271015;61;20416;-65
2023/04/20 10:56:51;0.00;0.00;0.62;0.00;0.00;0.62;3.60;3.07;;;24.20;19.20;;;;;;2271243;61;20394;-63